createdAt,value
2024-04-18T00:01:22.312Z,5.10
2024-04-18T00:03:49.078Z,4.20
2024-04-18T00:06:15.775Z,4.50
2024-04-18T00:08:42.225Z,4.50
2024-04-18T00:11:27.141Z,5.10
2024-04-18T00:13:53.727Z,4.10
2024-04-18T00:16:35.455Z,3.60
2024-04-18T00:19:15.681Z,4.50
2024-04-18T00:21:58.928Z,4.40
2024-04-18T00:24:26.677Z,3.90
2024-04-18T00:26:53.221Z,4.00
2024-04-18T00:29:19.923Z,5.30
2024-04-18T00:31:46.500Z,3.90
2024-04-18T00:34:33.193Z,4.00
2024-04-18T00:36:59.626Z,3.90
2024-04-18T00:39:26.278Z,4.10
2024-04-18T00:42:01.776Z,4.20
2024-04-18T00:44:31.393Z,4.30
2024-04-18T00:47:13.793Z,4.10
2024-04-18T00:50:01.929Z,4.30
2024-04-18T00:52:39.481Z,4.20
2024-04-18T00:55:09.238Z,4.30
2024-04-18T00:57:35.951Z,4.20
2024-04-18T01:00:06.438Z,3.70
2024-04-18T01:02:51.743Z,4.20
2024-04-18T01:05:33.464Z,4.10
2024-04-18T01:08:00.118Z,4.50
2024-04-18T01:10:46.650Z,4.70
2024-04-18T01:13:13.142Z,4.60
2024-04-18T01:15:58.959Z,4.60
2024-04-18T01:18:25.620Z,4.90
2024-04-18T01:21:12.264Z,5.20
2024-04-18T01:23:38.992Z,4.50
2024-04-18T01:26:05.464Z,4.90
2024-04-18T01:28:32.130Z,5.10
2024-04-18T01:30:58.746Z,4.80
2024-04-18T01:33:26.502Z,4.70
2024-04-18T01:35:53.238Z,5.20
2024-04-18T01:38:19.795Z,4.70
2024-04-18T01:40:46.329Z,4.90
2024-04-18T01:43:31.721Z,4.40
2024-04-18T01:45:58.335Z,4.60
2024-04-18T01:48:24.926Z,5.00
2024-04-18T01:51:11.388Z,4.80
2024-04-18T01:53:38.311Z,4.10
2024-04-18T01:56:17.937Z,4.50
2024-04-18T01:58:46.109Z,4.80
2024-04-18T02:01:12.677Z,4.40
2024-04-18T02:03:39.927Z,4.80
2024-04-18T02:06:12.578Z,4.70
2024-04-18T02:08:48.706Z,4.10
2024-04-18T02:11:41.919Z,5.10
2024-04-18T02:14:12.823Z,4.20
2024-04-18T02:16:39.326Z,3.80
2024-04-18T02:19:25.167Z,3.30
2024-04-18T02:21:57.510Z,4.40
2024-04-18T02:24:38.210Z,4.30
2024-04-18T02:27:05.019Z,4.40
2024-04-18T02:29:31.651Z,3.80
2024-04-18T02:32:01.031Z,3.90
2024-04-18T02:34:30.965Z,5.30
2024-04-18T02:36:57.374Z,4.40
2024-04-18T02:39:24.115Z,4.70
2024-04-18T02:41:50.577Z,4.10
2024-04-18T02:44:26.278Z,4.20
2024-04-18T02:46:53.315Z,4.70
2024-04-18T02:49:20.152Z,4.80
2024-04-18T02:51:56.643Z,4.10
2024-04-18T02:54:42.094Z,4.40
2024-04-18T02:57:08.735Z,4.30
2024-04-18T02:59:35.268Z,4.60
2024-04-18T03:02:21.946Z,4.20
2024-04-18T03:04:48.976Z,4.00
2024-04-18T03:07:15.436Z,3.80
2024-04-18T03:09:47.949Z,4.20
2024-04-18T03:12:27.298Z,4.60
2024-04-18T03:15:12.624Z,7.40
2024-04-18T03:18:02.109Z,4.50
2024-04-18T03:20:34.952Z,4.80
2024-04-18T03:23:09.120Z,7.50
2024-04-18T03:25:55.722Z,5.20
2024-04-18T03:28:22.215Z,4.70
2024-04-18T03:30:48.790Z,5.20
2024-04-18T03:33:15.541Z,4.50
2024-04-18T03:35:42.134Z,4.30
2024-04-18T03:38:15.154Z,4.70
2024-04-18T03:40:41.722Z,4.90
2024-04-18T03:43:08.233Z,5.00
2024-04-18T03:45:34.792Z,4.90
2024-04-18T03:48:20.189Z,5.40
2024-04-18T03:50:46.902Z,5.80
2024-04-18T03:53:22.745Z,5.30
2024-04-18T03:56:08.954Z,4.50
2024-04-18T03:58:35.654Z,4.60
2024-04-18T04:01:02.397Z,4.00
2024-04-18T04:03:29.533Z,4.50
2024-04-18T04:05:56.192Z,4.10
2024-04-18T04:08:22.800Z,4.50
2024-04-18T04:11:09.326Z,4.20
2024-04-18T04:13:36.737Z,4.50
2024-04-18T04:16:16.532Z,3.80
2024-04-18T04:18:43.916Z,4.60
2024-04-18T04:21:29.380Z,4.30
2024-04-18T04:23:56.475Z,4.00
2024-04-18T04:26:42.994Z,4.50
2024-04-18T04:29:09.659Z,4.30
2024-04-18T04:31:36.347Z,4.50
2024-04-18T04:34:02.810Z,4.30
2024-04-18T04:36:29.444Z,4.70
2024-04-18T04:38:56.284Z,4.40
2024-04-18T04:41:34.418Z,4.40
2024-04-18T04:44:00.929Z,4.20
2024-04-18T04:46:47.490Z,4.60
2024-04-18T04:49:18.199Z,5.30
2024-04-18T04:52:01.030Z,7.10
2024-04-18T04:54:42.396Z,6.50
2024-04-18T04:57:09.384Z,6.30
2024-04-18T04:59:36.367Z,7.30
2024-04-18T05:02:03.784Z,6.00
2024-04-18T05:04:49.950Z,5.30
2024-04-18T05:07:32.239Z,4.60
2024-04-18T05:10:19.857Z,4.60
2024-04-18T05:12:46.649Z,5.10
2024-04-18T05:15:34.281Z,3.70
2024-04-18T05:18:01.066Z,3.40
2024-04-18T05:23:20.702Z,4.20
2024-04-18T05:25:48.042Z,4.30
2024-04-18T05:28:22.457Z,3.80
2024-04-18T05:31:02.622Z,3.60
2024-04-18T05:33:31.140Z,3.70
2024-04-18T05:35:58.604Z,4.00
2024-04-18T05:38:26.644Z,4.60
2024-04-18T05:40:53.898Z,3.90
2024-04-18T05:43:41.043Z,4.50
2024-04-18T05:46:08.296Z,3.20
2024-04-18T05:48:37.082Z,3.70
2024-04-18T05:51:04.403Z,3.80
2024-04-18T05:53:31.715Z,3.30
2024-04-18T05:55:59.634Z,3.40
2024-04-18T05:58:27.229Z,3.70
2024-04-18T06:00:54.763Z,4.20
2024-04-18T06:03:22.452Z,4.30
2024-04-18T06:05:49.714Z,4.10
2024-04-18T06:08:17.174Z,4.30
2024-04-18T06:10:44.500Z,4.40
2024-04-18T06:13:23.689Z,4.10
2024-04-18T06:15:51.111Z,4.20
2024-04-18T06:18:18.417Z,3.70
2024-04-18T06:20:47.025Z,3.50
2024-04-18T06:23:14.627Z,3.30
2024-04-18T06:25:42.614Z,3.40
2024-04-18T06:28:11.696Z,3.50
2024-04-18T06:30:42.160Z,3.40
2024-04-18T06:33:12.888Z,3.50
2024-04-18T06:35:42.051Z,3.60
2024-04-18T06:38:09.299Z,3.50
2024-04-18T06:40:37.053Z,3.80
2024-04-18T06:43:04.544Z,2.90
2024-04-18T06:45:31.909Z,3.50
2024-04-18T06:47:59.294Z,2.80
2024-04-18T06:50:27.747Z,3.00
2024-04-18T06:52:55.049Z,3.10
2024-04-18T06:55:25.233Z,3.40
2024-04-18T06:57:53.240Z,2.80
2024-04-18T07:00:20.985Z,3.10
2024-04-18T07:02:48.598Z,3.30
2024-04-18T07:05:42.584Z,3.40
2024-04-18T07:08:22.545Z,3.00
2024-04-18T07:10:50.017Z,3.20
2024-04-18T07:13:32.561Z,2.90
2024-04-18T07:16:04.673Z,3.10
2024-04-18T07:18:51.148Z,3.30
2024-04-18T07:21:18.845Z,3.00
2024-04-18T07:23:46.514Z,2.70
2024-04-18T07:26:33.908Z,2.80
2024-04-18T07:29:01.468Z,3.00
2024-04-18T07:31:29.076Z,2.80
2024-04-18T07:34:26.438Z,3.10
2024-04-18T07:36:54.617Z,2.90
2024-04-18T07:39:22.246Z,2.30
2024-04-18T07:41:49.758Z,2.70
2024-04-18T07:44:18.751Z,2.50
2024-04-18T07:46:49.295Z,2.50
2024-04-18T07:49:16.795Z,2.50
2024-04-18T07:51:44.231Z,3.80
2024-04-18T07:54:11.704Z,2.50
2024-04-18T07:56:39.426Z,2.60
2024-04-18T07:59:09.747Z,2.00
2024-04-18T08:01:39.910Z,4.30
2024-04-18T08:04:27.425Z,2.70
2024-04-18T08:06:58.393Z,1.80
2024-04-18T08:09:30.006Z,2.30
2024-04-18T08:14:33.080Z,2.20
2024-04-18T08:17:04.016Z,2.30
2024-04-18T08:19:32.863Z,2.10
2024-04-18T08:22:03.373Z,2.10
2024-04-18T08:24:36.305Z,2.40
2024-04-18T08:27:07.581Z,2.40
2024-04-18T08:29:35.125Z,2.40
2024-04-18T08:32:02.810Z,2.50
2024-04-18T08:34:32.580Z,2.40
2024-04-18T08:37:01.491Z,2.10
2024-04-18T08:39:29.878Z,2.20
2024-04-18T08:41:58.384Z,2.90
2024-04-18T08:44:26.477Z,2.50
2024-04-18T08:46:54.121Z,2.50
2024-04-18T08:49:21.630Z,2.70
2024-04-18T08:51:49.215Z,2.70
2024-04-18T08:54:18.103Z,2.50
2024-04-18T08:56:49.911Z,2.00
2024-04-18T08:59:18.183Z,2.00
2024-04-18T09:01:45.539Z,2.10
2024-04-18T09:04:13.183Z,2.40
2024-04-18T09:06:40.650Z,2.10
2024-04-18T09:09:15.124Z,2.60
2024-04-18T09:11:42.492Z,2.30
2024-04-18T09:14:10.120Z,2.20
2024-04-18T09:16:39.099Z,2.00
2024-04-18T09:19:07.270Z,1.90
2024-04-18T09:21:36.236Z,2.00
2024-04-18T09:24:06.520Z,2.40
2024-04-18T09:26:33.968Z,1.70
2024-04-18T09:29:01.358Z,1.70
2024-04-18T09:31:37.699Z,2.40
2024-04-18T09:34:11.504Z,2.00
2024-04-18T09:36:41.289Z,2.00
2024-04-18T09:39:17.580Z,2.00
2024-04-18T09:41:50.550Z,1.90
2024-04-18T09:44:26.164Z,2.60
2024-04-18T09:46:57.213Z,2.30
2024-04-18T09:49:25.240Z,2.50
2024-04-18T09:51:52.988Z,2.20
2024-04-18T09:54:20.528Z,2.30
2024-04-18T09:56:48.344Z,2.00
2024-04-18T09:59:16.943Z,2.30
2024-04-18T10:01:51.168Z,2.00
2024-04-18T10:04:29.065Z,2.40
2024-04-18T10:06:56.923Z,2.20
2024-04-18T10:09:28.540Z,2.20
2024-04-18T10:11:58.197Z,2.20
2024-04-18T10:14:25.530Z,2.60
2024-04-18T10:16:53.327Z,1.80
2024-04-18T10:19:22.723Z,1.80
2024-04-18T10:22:10.870Z,2.30
2024-04-18T10:24:44.789Z,2.30
2024-04-18T10:27:15.941Z,2.40
2024-04-18T10:29:58.261Z,2.40
2024-04-18T10:32:29.928Z,2.80
2024-04-18T10:35:00.277Z,2.70
2024-04-18T10:37:27.867Z,2.40
2024-04-18T10:39:58.908Z,2.30
2024-04-18T10:42:26.946Z,2.50
2024-04-18T10:44:54.443Z,2.60
2024-04-18T10:47:22.711Z,2.30
2024-04-18T10:49:50.352Z,2.70
2024-04-18T10:52:18.324Z,2.90
2024-04-18T10:54:47.746Z,3.70
2024-04-18T10:57:15.288Z,3.40
2024-04-18T10:59:48.033Z,3.50
2024-04-18T11:02:16.365Z,3.30
2024-04-18T11:04:43.709Z,3.20
2024-04-18T11:07:12.350Z,3.40
2024-04-18T11:09:42.096Z,3.20
2024-04-18T11:12:09.844Z,3.60
2024-04-18T11:14:37.864Z,3.90
2024-04-18T11:17:05.401Z,4.20
2024-04-18T11:19:32.990Z,3.40
2024-04-18T11:22:01.340Z,3.00
2024-04-18T11:24:29.877Z,2.90
2024-04-18T11:26:57.543Z,3.80
2024-04-18T11:29:28.667Z,2.80
2024-04-18T11:32:10.321Z,2.40
2024-04-18T11:34:39.606Z,2.90
2024-04-18T11:37:13.345Z,2.50
2024-04-18T11:39:41.953Z,3.00
2024-04-18T11:42:09.716Z,2.80
2024-04-18T11:44:37.217Z,3.20
2024-04-18T11:47:04.953Z,2.90
2024-04-18T11:49:32.391Z,2.60
2024-04-18T11:51:59.829Z,2.50
2024-04-18T11:54:27.132Z,3.50
2024-04-18T11:56:55.121Z,3.00
2024-04-18T11:59:36.054Z,3.00
2024-04-18T12:02:03.626Z,2.80
2024-04-18T12:04:51.432Z,2.50
2024-04-18T12:07:18.929Z,2.50
2024-04-18T12:09:49.707Z,3.20
2024-04-18T12:12:17.169Z,2.40
2024-04-18T12:14:48.766Z,2.20
2024-04-18T12:20:16.128Z,2.50
2024-04-18T12:22:43.601Z,2.30
2024-04-18T12:25:15.346Z,2.10
2024-04-18T12:27:42.660Z,2.50
2024-04-18T12:30:30.337Z,2.40
2024-04-18T12:33:17.112Z,2.20
2024-04-18T12:35:45.159Z,2.30
2024-04-18T12:38:12.715Z,2.00
2024-04-18T12:40:44.261Z,2.00
2024-04-18T12:43:21.071Z,2.40
2024-04-18T12:46:03.533Z,2.30
2024-04-18T12:48:56.369Z,2.50
2024-04-18T12:51:24.142Z,2.20
2024-04-18T12:53:53.995Z,2.50
2024-04-18T12:56:48.657Z,2.00
2024-04-18T12:59:22.595Z,1.70
2024-04-18T13:01:50.030Z,2.00
2024-04-18T13:04:20.392Z,1.70
2024-04-18T13:06:48.454Z,1.90
2024-04-18T13:09:31.611Z,2.00
2024-04-18T13:12:05.279Z,1.50
2024-04-18T13:14:51.783Z,2.20
2024-04-18T13:17:19.734Z,1.90
2024-04-18T13:19:47.540Z,1.90
2024-04-18T13:22:17.430Z,2.10
2024-04-18T13:24:48.025Z,2.00
2024-04-18T13:27:29.159Z,1.90
2024-04-18T13:29:56.944Z,2.00
2024-04-18T13:32:35.467Z,1.90
2024-04-18T13:35:03.119Z,1.70
2024-04-18T13:37:30.602Z,2.00
2024-04-18T13:40:17.991Z,1.40
2024-04-18T13:42:58.624Z,1.40
2024-04-18T13:45:32.578Z,1.70
2024-04-18T13:48:01.674Z,1.80
2024-04-18T13:50:45.255Z,1.40
2024-04-18T13:53:13.582Z,1.80
2024-04-18T13:55:49.696Z,1.60
2024-04-18T13:58:17.757Z,1.60
2024-04-18T14:00:59.181Z,1.60
2024-04-18T14:03:31.936Z,1.40
2024-04-18T14:06:09.201Z,1.90
2024-04-18T14:08:40.898Z,1.50
2024-04-18T14:11:27.873Z,1.60
2024-04-18T14:14:08.965Z,1.30
2024-04-18T14:16:56.276Z,1.50
2024-04-18T14:19:33.230Z,1.80
2024-04-18T14:24:35.623Z,1.60
2024-04-18T14:27:03.264Z,1.60
2024-04-18T14:29:30.820Z,1.50
2024-04-18T14:32:00.793Z,1.40
2024-04-18T14:34:48.113Z,1.40
2024-04-18T14:37:18.805Z,1.30
2024-04-18T14:39:47.516Z,1.40
2024-04-18T14:42:15.203Z,1.20
2024-04-18T14:44:42.802Z,1.20
2024-04-18T14:50:03.591Z,1.40
2024-04-18T14:52:35.231Z,1.40
2024-04-18T14:55:25.900Z,1.20
2024-04-18T14:58:02.486Z,1.40
2024-04-18T15:00:52.372Z,1.60
2024-04-18T15:03:20.811Z,1.40
2024-04-18T15:05:55.464Z,1.50
2024-04-18T15:08:42.499Z,1.70
2024-04-18T15:11:27.095Z,1.50
2024-04-18T15:14:05.550Z,1.30
2024-04-18T15:16:33.736Z,1.40
2024-04-18T15:19:01.280Z,1.40
2024-04-18T15:21:49.730Z,1.20
2024-04-18T15:24:17.272Z,1.20
2024-04-18T15:27:04.166Z,1.30
2024-04-18T15:29:31.979Z,1.30
2024-04-18T15:32:22.908Z,1.10
2024-04-18T15:34:50.443Z,1.20
2024-04-18T15:37:36.137Z,1.50
2024-04-18T15:40:03.963Z,1.30
2024-04-18T15:42:31.546Z,1.50
2024-04-18T15:45:00.735Z,1.50
2024-04-18T15:47:32.321Z,1.40
2024-04-18T15:50:32.552Z,1.40
2024-04-18T15:53:00.165Z,1.20
2024-04-18T15:55:30.650Z,1.40
2024-04-18T15:58:18.730Z,1.60
2024-04-18T16:00:46.372Z,1.60
2024-04-18T16:03:33.877Z,1.30
2024-04-18T16:06:23.198Z,1.50
2024-04-18T16:09:09.711Z,1.30
2024-04-18T16:11:40.142Z,1.20
2024-04-18T16:14:28.107Z,1.50
2024-04-18T16:16:55.682Z,1.20
2024-04-18T16:19:40.766Z,1.30
2024-04-18T16:22:08.313Z,1.10
2024-04-18T16:24:50.812Z,1.40
2024-04-18T16:27:18.227Z,1.10
2024-04-18T16:30:00.976Z,1.50
2024-04-18T16:32:40.627Z,2.90
2024-04-18T16:35:08.229Z,1.30
2024-04-18T16:37:40.277Z,1.00
2024-04-18T16:40:17.044Z,1.40
2024-04-18T16:43:00.235Z,1.10
2024-04-18T16:45:31.721Z,1.20
2024-04-18T16:48:01.023Z,1.30
2024-04-18T16:50:29.210Z,1.00
2024-04-18T16:52:56.730Z,1.40
2024-04-18T16:55:45.842Z,1.30
2024-04-18T16:58:17.115Z,1.30
2024-04-18T17:00:59.746Z,1.10
2024-04-18T17:03:27.662Z,1.00
2024-04-18T17:06:02.797Z,1.30
2024-04-18T17:08:30.491Z,1.50
2024-04-18T17:10:58.386Z,0.90
2024-04-18T17:13:44.307Z,1.30
2024-04-18T17:16:12.144Z,1.90
2024-04-18T17:18:49.093Z,2.10
2024-04-18T17:21:17.039Z,1.10
2024-04-18T17:23:44.799Z,1.10
2024-04-18T17:26:12.223Z,1.00
2024-04-18T17:28:40.231Z,1.20
2024-04-18T17:31:08.159Z,1.00
2024-04-18T17:33:36.005Z,1.00
2024-04-18T17:36:04.135Z,1.60
2024-04-18T17:40:40.977Z,1.70
2024-04-18T17:43:09.304Z,1.50
2024-04-18T17:45:38.547Z,1.20
2024-04-18T17:48:22.306Z,1.10
2024-04-18T17:50:54.127Z,1.00
2024-04-18T17:53:21.839Z,1.10
2024-04-18T17:55:51.186Z,1.10
2024-04-18T17:58:19.132Z,1.40
2024-04-18T18:00:46.994Z,1.20
2024-04-18T18:03:14.855Z,1.40
2024-04-18T18:05:43.041Z,1.30
2024-04-18T18:08:28.983Z,1.40
2024-04-18T18:11:16.580Z,1.20
2024-04-18T18:13:44.628Z,1.30
2024-04-18T18:16:16.607Z,1.40
2024-04-18T18:18:45.070Z,1.50
2024-04-18T18:21:12.530Z,1.20
2024-04-18T18:23:39.948Z,1.60
2024-04-18T18:26:07.534Z,1.40
2024-04-18T18:28:35.068Z,1.10
2024-04-18T18:31:02.406Z,1.30
2024-04-18T18:33:30.086Z,1.30
2024-04-18T18:35:57.963Z,1.20
2024-04-18T18:38:25.733Z,1.30
2024-04-18T18:40:53.182Z,1.40
2024-04-18T18:43:24.379Z,1.20
2024-04-18T18:45:59.371Z,1.10
2024-04-18T18:48:27.460Z,1.30
2024-04-18T18:51:06.774Z,1.10
2024-04-18T18:53:34.738Z,1.20
2024-04-18T18:56:03.736Z,1.30
2024-04-18T18:58:52.952Z,1.20
2024-04-18T19:01:22.303Z,1.10
2024-04-18T19:04:09.926Z,1.40
2024-04-18T19:06:37.870Z,1.20
2024-04-18T19:09:07.600Z,1.30
2024-04-18T19:11:38.683Z,1.40
2024-04-18T19:14:06.203Z,1.30
2024-04-18T19:16:33.908Z,1.50
2024-04-18T19:19:01.567Z,1.30
2024-04-18T19:21:29.162Z,1.30
2024-04-18T19:23:58.253Z,1.90
2024-04-18T19:26:27.375Z,1.60
2024-04-18T19:28:55.063Z,1.50
2024-04-18T19:31:22.741Z,1.60
2024-04-18T19:33:50.942Z,1.70
2024-04-18T19:36:18.628Z,1.60
2024-04-18T19:38:46.291Z,1.60
2024-04-18T19:41:26.559Z,1.60
2024-04-18T19:43:55.149Z,1.40
2024-04-18T19:46:23.180Z,1.50
2024-04-18T19:49:10.430Z,2.00
2024-04-18T19:51:57.328Z,1.40
2024-04-18T19:54:24.828Z,1.60
2024-04-18T19:56:52.357Z,1.40
2024-04-18T19:59:19.778Z,1.30
2024-04-18T20:01:48.661Z,1.20
2024-04-18T20:04:16.142Z,1.20
2024-04-18T20:06:43.726Z,1.50
2024-04-18T20:09:11.146Z,1.40
2024-04-18T20:11:38.746Z,1.40
2024-04-18T20:14:06.249Z,1.60
2024-04-18T20:16:35.064Z,1.30
2024-04-18T20:19:14.737Z,1.30
2024-04-18T20:21:43.582Z,1.20
2024-04-18T20:24:12.092Z,1.30
2024-04-18T20:26:58.551Z,1.30
2024-04-18T20:29:47.441Z,1.30
2024-04-18T20:32:21.765Z,1.40
2024-04-18T20:34:49.488Z,1.40
2024-04-18T20:37:17.821Z,1.40
2024-04-18T20:39:46.529Z,1.50
2024-04-18T20:42:14.143Z,1.50
2024-04-18T20:45:00.252Z,1.40
2024-04-18T20:47:27.824Z,1.40
2024-04-18T20:49:55.172Z,2.00
2024-04-18T20:52:23.076Z,1.40
2024-04-18T20:54:50.583Z,1.80
2024-04-18T20:57:18.145Z,2.00
2024-04-18T20:59:45.653Z,1.50
2024-04-18T21:02:13.022Z,1.80
2024-04-18T21:04:41.381Z,1.50
2024-04-18T21:07:08.843Z,2.10
2024-04-18T21:09:36.691Z,1.70
2024-04-18T21:12:04.738Z,1.50
2024-04-18T21:14:32.124Z,1.60
2024-04-18T21:16:59.387Z,1.60
2024-04-18T21:19:26.845Z,1.50
2024-04-18T21:21:54.215Z,1.20
2024-04-18T21:24:21.687Z,1.50
2024-04-18T21:26:49.156Z,1.70
2024-04-18T21:29:16.473Z,1.70
2024-04-18T21:31:43.937Z,1.40
2024-04-18T21:34:11.967Z,1.80
2024-04-18T21:36:39.619Z,1.30
2024-04-18T21:39:07.259Z,1.30
2024-04-18T21:41:35.506Z,1.20
2024-04-18T21:44:03.023Z,1.20
2024-04-18T21:46:30.306Z,1.20
2024-04-18T21:48:57.624Z,1.10
2024-04-18T21:51:25.132Z,1.40
2024-04-18T21:53:52.457Z,0.90
2024-04-18T21:56:19.711Z,1.30
2024-04-18T21:58:47.017Z,1.10
2024-04-18T22:01:33.674Z,1.00
2024-04-18T22:04:01.269Z,1.10
2024-04-18T22:06:28.597Z,1.10
2024-04-18T22:08:55.860Z,1.30
2024-04-18T22:11:23.157Z,1.90
2024-04-18T22:13:50.630Z,2.00
2024-04-18T22:16:18.049Z,1.90
2024-04-18T22:18:45.629Z,1.60
2024-04-18T22:21:13.131Z,1.00
2024-04-18T22:23:40.428Z,1.00
2024-04-18T22:26:08.414Z,1.00
2024-04-18T22:28:35.873Z,0.80
2024-04-18T22:31:04.288Z,0.60
2024-04-18T22:33:31.858Z,0.80
2024-04-18T22:35:59.397Z,0.80
2024-04-18T22:38:26.801Z,0.80
2024-04-18T22:40:54.141Z,0.90
2024-04-18T22:43:21.460Z,0.70
2024-04-18T22:45:48.896Z,1.20
2024-04-18T22:48:16.380Z,0.70
2024-04-18T22:50:44.670Z,0.80
2024-04-18T22:53:12.021Z,0.70
2024-04-18T22:55:39.428Z,0.70
2024-04-18T22:58:08.975Z,0.70
2024-04-18T23:00:37.551Z,0.70
2024-04-18T23:03:05.949Z,0.60
2024-04-18T23:05:36.559Z,0.70
2024-04-18T23:08:04.448Z,0.70
2024-04-18T23:10:32.780Z,0.50
2024-04-18T23:13:00.620Z,0.70
2024-04-18T23:15:47.259Z,0.60
2024-04-18T23:18:14.915Z,0.60
2024-04-18T23:20:43.879Z,0.50
2024-04-18T23:23:11.196Z,0.60
2024-04-18T23:25:38.489Z,0.60
2024-04-18T23:28:05.866Z,0.60
2024-04-18T23:30:33.277Z,0.70
2024-04-18T23:33:00.582Z,0.50
2024-04-18T23:35:27.949Z,0.40
2024-04-18T23:37:55.472Z,0.70
2024-04-18T23:40:22.839Z,0.50
2024-04-18T23:42:50.181Z,0.60
2024-04-18T23:45:17.690Z,0.50
2024-04-18T23:47:45.077Z,0.60
2024-04-18T23:50:12.464Z,0.60
2024-04-18T23:52:39.831Z,0.60
2024-04-18T23:55:07.241Z,0.60
2024-04-18T23:57:34.599Z,0.50
